Time;durP1;ratioP1;P1;durP2;ratioP2;P2;SDS_P1;SDS_P2;PMS_P1;PMS_P2;Temp;Humidity;BMP_temperature;BMP_pressure;BME280_temperature;BME280_humidity;BME280_pressure;Samples;Min_cycle;Max_cycle;Signal;HPM_P1;HPM_P2
2021/08/28 00:01:18;;;;;;;10.20;6.90;;;;;;;10.45;76.15;100003.81;2129311;83;27552;-62
2021/08/28 00:04:20;;;;;;;10.28;7.85;;;;;;;10.43;76.31;100007.05;2150599;81;29079;-64
2021/08/28 00:07:22;;;;;;;10.68;7.75;;;;;;;10.39;76.31;100004.62;2166688;81;30778;-62
2021/08/28 00:10:25;;;;;;;10.48;7.40;;;;;;;10.39;76.36;100015.33;2166595;81;34202;-65
2021/08/28 00:13:27;;;;;;;9.15;7.50;;;;;;;10.34;76.24;100011.05;2150407;82;30455;-64
2021/08/28 00:16:30;;;;;;;14.03;8.05;;;;;;;10.31;76.28;100012.58;2122261;83;27742;-64
2021/08/28 00:19:32;;;;;;;13.90;8.00;;;;;;;10.29;76.29;100013.58;2122327;83;29392;-62
2021/08/28 00:22:34;;;;;;;13.30;8.15;;;;;;;10.27;76.27;100015.02;2122145;83;31987;-62
2021/08/28 00:25:37;;;;;;;12.63;7.45;;;;;;;10.24;76.18;100019.19;2111319;83;34331;-63
2021/08/28 00:28:39;;;;;;;14.60;9.00;;;;;;;10.21;76.14;100022.51;2128025;83;29346;-60
2021/08/28 00:31:41;;;;;;;11.85;7.90;;;;;;;10.18;76.18;100020.84;2128635;83;27656;-63
2021/08/28 00:34:43;;;;;;;14.35;9.33;;;;;;;10.13;76.14;100017.07;2127643;83;29987;-61
2021/08/28 00:37:45;;;;;;;12.88;8.20;;;;;;;10.11;76.14;100017.62;2128212;83;31465;-61
2021/08/28 00:40:50;;;;;;;11.30;7.78;;;;;;;10.08;76.19;100011.57;2127723;83;33819;-65
2021/08/28 00:43:51;;;;;;;13.98;7.80;;;;;;;10.04;76.14;100011.72;2149867;81;29853;-61
2021/08/28 00:46:56;;;;;;;10.90;7.62;;;;;;;10.01;76.06;100014.55;2174658;80;27657;-63
2021/08/28 00:49:58;;;;;;;12.93;7.33;;;;;;;9.99;76.16;100014.25;2166144;82;28710;-63
2021/08/28 00:53:02;;;;;;;11.48;8.08;;;;;;;9.96;76.14;100018.42;2159964;82;32224;-62
2021/08/28 00:56:04;;;;;;;12.37;8.03;;;;;;;9.93;76.13;100014.10;2128317;83;33111;-62
2021/08/28 00:59:07;;;;;;;14.30;8.53;;;;;;;9.91;76.17;100017.81;2128374;83;30476;-61
2021/08/28 01:02:09;;;;;;;12.03;8.10;;;;;;;9.89;76.33;100024.56;2103014;83;27704;-62
2021/08/28 01:05:16;;;;;;;17.90;9.90;;;;;;;9.88;76.55;100032.19;2122624;83;29080;-65
2021/08/28 01:08:45;;;;;;;19.05;9.63;;;;;;;9.82;76.68;100029.85;2128366;83;30996;-62
2021/08/28 01:11:55;;;;;;;13.65;9.30;;;;;;;9.79;76.84;100029.52;2126984;83;33103;-60
2021/08/28 01:15:05;;;;;;;14.83;9.55;;;;;;;9.77;76.71;100030.06;2143806;82;30614;-61
2021/08/28 01:18:09;;;;;;;14.35;10.08;;;;;;;9.76;76.81;100033.70;2143735;83;27577;-61
2021/08/28 01:21:33;;;;;;;13.28;9.33;;;;;;;9.75;76.86;100036.44;2139514;82;28656;-62
2021/08/28 01:24:41;;;;;;;18.15;10.43;;;;;;;9.74;76.82;100027.56;2068628;85;32255;-61
2021/08/28 01:27:50;;;;;;;13.78;9.63;;;;;;;9.72;76.89;100031.64;2063473;84;32950;-61
2021/08/28 01:30:52;;;;;;;16.02;9.83;;;;;;;9.71;76.90;100037.93;2060919;86;30468;-61
2021/08/28 01:33:54;;;;;;;14.70;10.28;;;;;;;9.70;77.01;100029.99;2048084;86;27685;-61
2021/08/28 01:36:57;;;;;;;13.53;10.30;;;;;;;9.68;77.02;100040.75;2044352;87;29667;-61
2021/08/28 01:40:02;;;;;;;21.50;10.72;;;;;;;9.69;77.03;100043.82;2072771;83;32271;-61
2021/08/28 01:43:05;;;;;;;15.10;10.53;;;;;;;9.68;77.08;100039.90;2076084;85;32976;-61
2021/08/28 01:46:08;;;;;;;18.98;10.35;;;;;;;9.68;77.19;100039.90;2076719;85;29327;-62
2021/08/28 01:49:12;;;;;;;18.02;10.35;;;;;;;9.69;77.31;100037.13;2074473;84;27676;-62
2021/08/28 01:52:17;;;;;;;15.38;9.58;;;;;;;9.71;77.38;100037.08;2104638;83;29019;-61
2021/08/28 01:55:19;;;;;;;20.40;11.83;;;;;;;9.71;77.41;100037.08;2098934;83;31790;-61
2021/08/28 01:58:21;;;;;;;17.90;11.15;;;;;;;9.71;77.56;100039.75;2103951;83;33465;-61
2021/08/28 02:01:24;;;;;;;16.10;11.12;;;;;;;9.71;77.76;100039.27;2110079;83;29722;-62
2021/08/28 02:04:25;;;;;;;15.83;11.35;;;;;;;9.70;77.84;100031.33;2138211;81;27715;-61
2021/08/28 02:07:50;;;;;;;14.73;9.83;;;;;;;9.69;77.68;100038.96;2138155;83;29783;-61
2021/08/28 02:10:58;;;;;;;19.10;11.10;;;;;;;9.66;78.12;100033.76;2130569;81;31046;-62
2021/08/28 02:14:08;;;;;;;19.98;10.53;;;;;;;9.66;77.94;100034.64;2138688;83;33864;-65
2021/08/28 02:17:10;;;;;;;24.35;9.45;;;;;;;9.66;78.30;100029.75;2138711;83;30327;-65
2021/08/28 02:20:15;;;;;;;14.43;10.05;;;;;;;9.65;78.43;100032.03;2133583;82;28232;-64
2021/08/28 02:23:25;;;;;;;14.55;9.45;;;;;;;9.63;78.43;100028.10;2128639;83;29574;-61
2021/08/28 02:26:38;;;;;;;13.62;9.83;;;;;;;9.62;78.48;100025.48;2128142;83;32441;-61
2021/08/28 02:29:57;;;;;;;38.55;12.50;;;;;;;9.63;78.44;100027.22;2128139;83;34049;-61
2021/08/28 02:33:02;;;;;;;19.98;11.60;;;;;;;9.64;78.53;100020.93;2128456;83;30281;-61
2021/08/28 02:36:05;;;;;;;20.10;11.73;;;;;;;9.68;78.58;100027.86;2106309;83;27709;-61
2021/08/28 02:39:11;;;;;;;14.85;10.38;;;;;;;9.69;78.54;100021.57;2128673;81;29426;-61
2021/08/28 02:42:14;;;;;;;15.15;9.40;;;;;;;9.71;78.44;100027.72;2128138;83;32176;-61
2021/08/28 02:45:23;;;;;;;22.05;10.58;;;;;;;9.72;78.42;100030.30;2128471;83;33022;-60
2021/08/28 02:48:28;;;;;;;19.75;10.98;;;;;;;9.73;78.44;100026.69;2130828;81;30593;-61
2021/08/28 02:51:31;;;;;;;28.67;10.82;;;;;;;9.73;78.46;100029.84;2122583;83;27768;-62
2021/08/28 02:54:33;;;;;;;19.37;10.13;;;;;;;9.74;78.52;100034.25;2115179;84;29060;-61
2021/08/28 02:57:39;;;;;;;19.67;7.53;;;;;;;9.76;78.65;100028.81;2115102;84;31051;-61
2021/08/28 03:00:43;;;;;;;16.77;8.10;;;;;;;9.79;78.73;100033.53;2124208;83;34252;-61
2021/08/28 03:03:45;;;;;;;12.57;7.23;;;;;;;9.83;78.64;100034.26;2127723;83;29320;-60
2021/08/28 03:06:47;;;;;;;30.77;6.67;;;;;;;9.86;78.67;100036.75;2128308;83;27628;-62
2021/08/28 03:09:50;;;;;;;32.63;6.92;;;;;;;9.89;78.74;100045.97;2124990;83;29895;-60
2021/08/28 03:12:52;;;;;;;20.75;6.87;;;;;;;9.91;78.65;100044.57;2127382;83;30941;-60
2021/08/28 03:15:55;;;;;;;28.10;6.20;;;;;;;9.93;78.57;100044.02;2127850;83;33193;-60
2021/08/28 03:18:59;;;;;;;35.68;7.30;;;;;;;9.93;78.51;100044.02;2115407;83;30567;-61
2021/08/28 03:22:02;;;;;;;12.53;7.03;;;;;;;9.92;78.49;100043.14;2085245;85;27697;-60
2021/08/28 03:25:06;;;;;;;36.38;7.25;;;;;;;9.88;78.42;100047.80;2085178;85;28784;-61
2021/08/28 03:28:12;;;;;;;12.97;7.07;;;;;;;9.85;78.39;100047.06;2085124;83;31020;-61
2021/08/28 03:31:16;;;;;;;22.65;7.37;;;;;;;9.84;78.71;100053.39;2060906;85;33739;-60
2021/08/28 03:34:19;;;;;;;12.68;7.37;;;;;;;9.86;78.80;100053.69;2060805;86;29416;-60
2021/08/28 03:37:21;;;;;;;8.98;6.92;;;;;;;9.90;78.78;100061.08;2060483;86;28153;-60
2021/08/28 03:40:24;;;;;;;8.25;7.30;;;;;;;9.92;78.80;100055.67;2112026;83;29653;-60
2021/08/28 03:43:25;;;;;;;7.90;7.03;;;;;;;9.95;78.77;100055.48;2128128;83;32005;-59
2021/08/28 03:46:27;;;;;;;7.35;6.37;;;;;;;9.96;78.73;100059.89;2127700;83;34144;-60
2021/08/28 03:49:29;;;;;;;10.25;6.47;;;;;;;9.97;78.72;100057.16;2064254;84;29706;-60
2021/08/28 03:52:31;;;;;;;11.50;6.00;;;;;;;10.02;78.76;100056.92;2084868;85;27636;-60
2021/08/28 03:55:33;;;;;;;9.05;6.25;;;;;;;10.08;78.87;100050.37;2085158;85;30029;-60
2021/08/28 03:58:35;;;;;;;6.65;5.33;;;;;;;10.13;78.85;100052.36;2089937;83;32242;-60
2021/08/28 04:01:37;;;;;;;8.60;5.62;;;;;;;10.16;78.80;100047.70;2128030;82;32740;-60
2021/08/28 04:04:39;;;;;;;6.87;5.75;;;;;;;10.23;78.77;100048.73;2127446;83;30534;-60
2021/08/28 04:07:41;;;;;;;7.95;5.78;;;;;;;10.22;78.61;100055.88;2127556;83;27553;-60
2021/08/28 04:10:43;;;;;;;9.73;6.37;;;;;;;10.18;78.43;100055.63;2127754;82;29912;-59
2021/08/28 04:13:45;;;;;;;7.83;5.37;;;;;;;10.16;78.38;100055.73;2128078;83;32350;-59
2021/08/28 04:16:47;;;;;;;10.35;5.20;;;;;;;10.15;78.42;100049.12;2127935;83;33012;-59
2021/08/28 04:19:49;;;;;;;5.75;5.15;;;;;;;10.15;78.49;100052.66;2101582;82;30532;-60
2021/08/28 04:22:50;;;;;;;6.67;5.45;;;;;;;10.14;78.44;100062.97;2085200;85;27693;-59
2021/08/28 04:25:52;;;;;;;6.33;5.37;;;;;;;10.20;78.66;100055.09;2084992;85;29671;-60
2021/08/28 04:28:56;;;;;;;7.15;5.08;;;;;;;10.28;78.63;100060.92;2108011;83;31892;-60
2021/08/28 04:31:58;;;;;;;8.98;5.50;;;;;;;10.35;78.69;100068.16;2128218;83;32960;-60
2021/08/28 04:35:00;;;;;;;6.30;5.28;;;;;;;10.43;78.68;100064.62;2127937;83;30545;-60
2021/08/28 04:38:02;;;;;;;5.58;4.97;;;;;;;10.51;78.71;100064.70;2116404;83;27693;-60
2021/08/28 04:41:04;;;;;;;7.87;4.90;;;;;;;10.58;78.60;100066.12;2085577;85;28157;-59
2021/08/28 04:44:09;;;;;;;7.10;5.42;;;;;;;10.63;78.53;100068.05;2085199;85;31836;-59
2021/08/28 04:47:14;;;;;;;;;;;;;;;10.67;78.39;100066.95;2087990;85;34043;-64
2021/08/28 04:50:19;;;;;;;9.15;6.95;;;;;;;10.71;78.42;100072.54;2127657;83;29383;-60
2021/08/28 04:53:25;;;;;;;;;;;;;;;10.76;78.37;100061.56;2130914;83;27708;-60
2021/08/28 04:56:31;;;;;;;8.85;6.03;;;;;;;10.77;78.18;100064.64;2128428;83;28845;-63
2021/08/28 04:59:36;;;;;;;10.15;7.03;;;;;;;10.79;78.27;100066.27;2080700;83;30984;-61
2021/08/28 05:02:41;;;;;;;8.13;6.90;;;;;;;10.86;78.32;100070.82;2068352;83;32412;-61
2021/08/28 05:05:47;;;;;;;10.10;7.22;;;;;;;10.93;78.36;100077.59;2136943;83;30243;-61
2021/08/28 05:08:49;;;;;;;8.55;6.92;;;;;;;10.99;78.21;100080.41;2140811;81;27725;-64
2021/08/28 05:11:56;;;;;;;9.83;7.30;;;;;;;11.02;78.10;100079.36;2137825;82;29231;-65
2021/08/28 05:14:58;;;;;;;11.08;6.83;;;;;;;11.07;78.19;100081.32;2127810;83;31031;-63
2021/08/28 05:18:00;;;;;;;8.78;6.83;;;;;;;11.18;78.29;100080.23;2129603;83;34235;-64
2021/08/28 05:21:02;;;;;;;15.93;10.60;;;;;;;11.24;78.12;100073.70;2129444;83;31504;-65
2021/08/28 05:24:04;;;;;;;11.63;7.35;;;;;;;11.29;78.05;100078.30;2128404;83;27663;-64
2021/08/28 05:27:06;;;;;;;10.10;6.85;;;;;;;11.33;77.97;100071.82;2128659;83;29812;-62
2021/08/28 05:30:10;;;;;;;11.83;7.75;;;;;;;11.42;78.12;100069.59;2110705;83;31152;-60
2021/08/28 05:33:14;;;;;;;10.45;6.92;;;;;;;11.51;78.17;100061.84;2137420;83;33040;-63
2021/08/28 05:36:15;;;;;;;10.65;6.78;;;;;;;11.62;78.10;100069.77;2137039;83;30612;-61
2021/08/28 05:39:17;;;;;;;14.87;6.87;;;;;;;11.75;78.29;100065.91;2120535;83;27619;-61
2021/08/28 05:42:19;;;;;;;10.50;7.37;;;;;;;11.89;78.06;100071.79;2118277;83;29882;-61
2021/08/28 05:45:21;;;;;;;11.18;7.40;;;;;;;12.04;78.14;100074.09;2128748;83;31031;-64
2021/08/28 05:48:24;;;;;;;11.83;8.40;;;;;;;12.19;78.18;100073.17;2131288;81;34365;-62
2021/08/28 05:51:26;;;;;;;11.00;7.42;;;;;;;12.36;78.12;100068.59;2129047;83;29699;-61
2021/08/28 05:54:31;;;;;;;13.10;8.43;;;;;;;12.51;78.01;100069.46;2128586;83;27688;-63
2021/08/28 05:57:33;;;;;;;;;;;;;;;12.70;77.94;100071.89;2130880;83;29081;-61
2021/08/28 06:00:35;;;;;;;14.55;9.38;;;;;;;12.86;77.76;100074.01;2113057;81;31548;-61
2021/08/28 06:03:39;;;;;;;12.10;8.28;;;;;;;13.03;77.32;100080.98;2106105;83;34341;-60
2021/08/28 06:06:41;;;;;;;11.30;7.33;;;;;;;13.10;76.95;100073.39;2099827;83;30561;-61
2021/08/28 06:09:43;;;;;;;12.37;7.85;;;;;;;13.27;76.74;100064.25;2089347;83;27651;-62
2021/08/28 06:12:45;;;;;;;10.82;6.97;;;;;;;13.59;76.77;100067.16;2113236;84;29023;-61
2021/08/28 06:15:47;;;;;;;9.65;6.67;;;;;;;13.92;76.36;100064.52;2112328;84;32107;-61
2021/08/28 06:18:49;;;;;;;10.35;6.40;;;;;;;14.21;76.19;100067.93;2112490;83;34177;-61
2021/08/28 06:21:51;;;;;;;7.90;6.70;;;;;;;14.51;75.88;100066.77;2103720;83;30568;-61
2021/08/28 06:24:53;;;;;;;7.08;5.45;;;;;;;14.79;75.55;100069.38;2099843;84;28092;-65
2021/08/28 06:27:55;;;;;;;8.63;6.37;;;;;;;14.98;74.70;100066.22;2100190;84;29123;-61
2021/08/28 06:30:57;;;;;;;7.45;6.05;;;;;;;15.16;74.24;100068.94;2100004;84;31869;-65
2021/08/28 06:33:59;;;;;;;7.90;5.72;;;;;;;15.36;73.91;100066.63;2100136;84;33369;-63
2021/08/28 06:37:01;;;;;;;10.28;6.03;;;;;;;15.55;73.55;100062.56;2099939;83;30214;-62
2021/08/28 06:40:04;;;;;;;9.18;5.90;;;;;;;15.73;73.72;100063.02;2099695;84;28135;-62
2021/08/28 06:43:06;;;;;;;8.10;5.40;;;;;;;15.98;73.37;100063.91;2099966;84;29496;-61
2021/08/28 06:46:08;;;;;;;6.10;5.42;;;;;;;16.22;72.90;100072.81;2099765;83;32233;-60
2021/08/28 06:49:10;;;;;;;8.10;5.92;;;;;;;16.42;72.79;100067.70;2099825;84;34245;-62
2021/08/28 06:52:12;;;;;;;9.78;6.35;;;;;;;16.67;72.66;100069.34;2099890;84;29328;-61
2021/08/28 06:55:14;;;;;;;8.65;5.90;;;;;;;16.89;72.36;100069.00;2100081;84;27697;-63
2021/08/28 06:58:17;;;;;;;9.68;6.33;;;;;;;17.12;71.72;100068.52;2099938;84;30055;-65
2021/08/28 07:01:20;;;;;;;12.65;6.80;;;;;;;17.31;71.41;100066.52;2099858;84;31185;-61
2021/08/28 07:04:22;;;;;;;9.38;6.45;;;;;;;17.49;71.18;100069.20;2099468;84;33756;-66
2021/08/28 07:07:24;;;;;;;8.23;6.50;;;;;;;17.64;71.21;100076.54;2099896;84;29821;-64
2021/08/28 07:10:26;;;;;;;8.60;5.87;;;;;;;17.85;71.07;100082.88;2100306;83;27665;-66
2021/08/28 07:13:28;;;;;;;9.80;7.22;;;;;;;18.04;70.41;100071.37;2099584;84;29933;-62
2021/08/28 07:16:30;;;;;;;10.08;6.58;;;;;;;18.21;70.06;100067.72;2100085;84;30517;-61
2021/08/28 07:19:32;;;;;;;9.63;7.10;;;;;;;18.35;69.66;100071.96;2100138;84;34240;-63
2021/08/28 07:22:35;;;;;;;7.80;7.00;;;;;;;18.49;69.47;100081.11;2099986;84;30112;-62
2021/08/28 07:25:37;;;;;;;10.68;7.65;;;;;;;18.67;69.07;100081.86;2100492;84;27635;-62
2021/08/28 07:28:39;;;;;;;5.90;5.40;;;;;;;18.75;68.32;100083.42;2099898;84;29532;-60
2021/08/28 07:31:41;;;;;;;7.42;6.53;;;;;;;18.82;67.36;100082.38;2099596;84;31888;-62
2021/08/28 07:34:44;;;;;;;8.45;6.35;;;;;;;18.76;67.20;100081.55;2099760;84;34185;-61
2021/08/28 07:37:46;;;;;;;7.78;6.25;;;;;;;18.89;67.22;100088.97;2099888;84;30492;-61
2021/08/28 07:40:49;;;;;;;7.90;6.37;;;;;;;19.05;67.25;100088.52;2099770;84;27691;-65
2021/08/28 07:43:51;;;;;;;10.72;7.03;;;;;;;19.17;66.65;100082.98;2099574;84;29920;-65
2021/08/28 07:46:54;;;;;;;9.60;5.47;;;;;;;19.28;66.24;100085.10;2099818;83;31775;-66
2021/08/28 07:49:56;;;;;;;9.00;6.37;;;;;;;19.37;65.62;100083.89;2099529;84;34286;-64
2021/08/28 07:52:58;;;;;;;7.40;6.10;;;;;;;19.47;65.57;100081.20;2099551;84;30565;-65
2021/08/28 07:56:00;;;;;;;7.50;5.95;;;;;;;19.66;65.53;100081.25;2101657;83;28148;-61
2021/08/28 07:59:03;;;;;;;5.58;4.97;;;;;;;19.88;64.94;100079.31;2099775;84;29288;-61
2021/08/28 08:02:06;;;;;;;7.37;6.03;;;;;;;20.00;64.34;100080.03;2099820;84;31103;-61
2021/08/28 08:05:10;;;;;;;4.50;4.08;;;;;;;20.20;63.78;100080.87;2100203;83;34178;-61
2021/08/28 08:08:16;;;;;;;6.95;4.62;;;;;;;20.34;63.43;100081.80;2099806;84;29353;-60
2021/08/28 08:11:20;;;;;;;5.55;4.85;;;;;;;20.59;62.79;100079.95;2099997;84;27629;-61
2021/08/28 08:14:24;;;;;;;5.70;4.08;;;;;;;20.85;62.31;100082.92;2099259;84;27611;-61
2021/08/28 08:17:28;;;;;;;5.20;4.35;;;;;;;21.04;61.64;100072.45;2099784;84;32255;-61
2021/08/28 08:20:31;;;;;;;4.62;3.77;;;;;;;21.25;61.14;100072.72;2099826;84;33124;-61
2021/08/28 08:23:34;;;;;;;4.95;3.92;;;;;;;21.48;60.79;100076.41;2099906;84;30192;-61
2021/08/28 08:26:35;;;;;;;3.08;2.87;;;;;;;21.70;60.66;100073.77;2099903;84;27705;-61
2021/08/28 08:29:38;;;;;;;5.08;3.50;;;;;;;22.03;59.90;100073.22;2099640;84;29523;-60
2021/08/28 08:32:40;;;;;;;4.30;3.90;;;;;;;22.19;59.34;100070.63;2099488;84;31118;-61
2021/08/28 08:35:42;;;;;;;5.60;3.65;;;;;;;22.46;58.32;100071.05;2100150;83;33017;-61
2021/08/28 08:38:44;;;;;;;4.80;4.03;;;;;;;22.62;58.07;100069.45;2099671;84;29931;-60
2021/08/28 08:41:47;;;;;;;4.47;3.95;;;;;;;22.83;57.69;100060.02;2112389;83;27730;-61
2021/08/28 08:44:49;;;;;;;5.42;4.25;;;;;;;23.03;57.33;100066.97;2099569;84;29530;-61
2021/08/28 08:47:53;;;;;;;4.37;3.98;;;;;;;23.13;56.94;100061.88;2080236;84;32324;-61
2021/08/28 08:50:55;;;;;;;6.37;3.40;;;;;;;23.22;55.75;100067.77;2099785;84;33077;-61
2021/08/28 08:53:57;;;;;;;3.77;3.37;;;;;;;23.16;54.78;100065.65;2099824;84;30432;-62
2021/08/28 08:56:59;;;;;;;3.65;2.60;;;;;;;23.15;55.62;100071.64;2100057;84;27667;-61
2021/08/28 09:00:01;;;;;;;2.20;2.10;;;;;;;23.20;55.09;100062.94;2099466;84;29903;-62
2021/08/28 09:03:03;;;;;;;3.60;2.25;;;;;;;23.20;54.84;100059.72;2099461;84;33093;-61
2021/08/28 09:06:06;;;;;;;2.42;2.22;;;;;;;23.10;53.65;100070.39;2086686;83;33460;-61
2021/08/28 09:09:07;;;;;;;1.72;1.62;;;;;;;22.99;54.05;100065.58;2084966;85;29583;-61
2021/08/28 09:12:12;;;;;;;2.47;2.00;;;;;;;22.99;54.13;100073.77;2085052;84;27701;-62
2021/08/28 09:15:15;;;;;;;3.05;1.98;;;;;;;23.14;54.43;100078.61;2085322;83;29552;-61
2021/08/28 09:18:18;;;;;;;2.30;2.00;;;;;;;23.23;53.49;100074.95;2127685;83;31493;-61
2021/08/28 09:21:23;;;;;;;3.22;1.77;;;;;;;23.26;52.96;100072.39;2128158;83;33638;-61
2021/08/28 09:24:25;;;;;;;1.67;1.50;;;;;;;23.40;53.17;100070.38;2128301;83;30218;-61
2021/08/28 09:27:50;;;;;;;1.72;1.32;;;;;;;23.47;51.43;100070.57;2127031;83;27628;-61
2021/08/28 09:30:52;;;;;;;1.87;1.50;;;;;;;23.40;51.83;100069.02;2128106;83;29461;-62
2021/08/28 09:34:16;;;;;;;2.77;1.57;;;;;;;23.44;51.92;100071.77;2127891;83;31413;-65
2021/08/28 09:37:18;;;;;;;2.08;1.40;;;;;;;23.51;51.40;100070.06;2097807;83;33562;-61
2021/08/28 09:40:28;;;;;;;1.30;1.30;;;;;;;23.64;51.50;100074.22;2084886;85;30230;-61
2021/08/28 09:43:30;;;;;;;1.95;1.42;;;;;;;23.72;51.50;100067.39;2120229;83;27638;-60
2021/08/28 09:46:32;;;;;;;1.60;1.32;;;;;;;23.67;50.29;100070.63;2109107;83;29846;-62
2021/08/28 09:49:34;;;;;;;1.37;1.00;;;;;;;23.54;50.24;100070.27;2084975;85;31064;-61
2021/08/28 09:52:36;;;;;;;1.50;1.40;;;;;;;23.46;49.80;100072.95;2104498;83;33668;-62
2021/08/28 09:55:41;;;;;;;0.98;0.98;;;;;;;23.35;49.86;100067.28;2126799;83;29908;-61
2021/08/28 09:58:42;;;;;;;1.00;0.80;;;;;;;23.31;49.54;100068.66;2107050;83;28118;-62
2021/08/28 10:01:47;;;;;;;2.47;1.05;;;;;;;23.27;49.48;100079.04;2084944;85;29884;-62
2021/08/28 10:04:56;;;;;;;1.30;1.00;;;;;;;23.31;49.33;100075.48;2079216;85;31137;-62
2021/08/28 10:08:00;;;;;;;1.20;1.10;;;;;;;23.40;49.41;100076.38;2137708;82;33090;-62
2021/08/28 10:11:03;;;;;;;1.20;1.10;;;;;;;23.48;49.13;100077.26;2137983;83;29359;-62
2021/08/28 10:14:05;;;;;;;1.40;1.30;;;;;;;23.62;49.31;100078.47;2147177;82;27613;-62
2021/08/28 10:17:08;;;;;;;1.30;1.20;;;;;;;23.74;48.97;100076.28;2116429;82;30741;-61
2021/08/28 10:20:11;;;;;;;2.17;1.07;;;;;;;23.83;48.91;100076.62;2035794;87;31412;-62
2021/08/28 10:23:14;;;;;;;4.50;1.27;;;;;;;23.87;48.85;100077.67;2101275;84;33016;-62
2021/08/28 10:26:17;;;;;;;1.12;1.05;;;;;;;23.94;49.17;100080.08;2109684;82;30148;-62
2021/08/28 10:29:19;;;;;;;2.70;1.30;;;;;;;23.82;47.09;100079.05;2160185;82;27699;-62
2021/08/28 10:32:22;;;;;;;1.80;1.50;;;;;;;23.67;47.93;100079.33;2138232;82;29656;-62
2021/08/28 10:35:25;;;;;;;1.02;0.95;;;;;;;23.64;48.23;100080.53;2138001;83;31149;-61
2021/08/28 10:38:29;;;;;;;1.45;1.35;;;;;;;23.54;46.95;100068.90;2134676;83;33691;-61
2021/08/28 10:41:31;;;;;;;1.40;1.30;;;;;;;23.47;47.90;100072.81;2137869;82;29374;-61
2021/08/28 10:44:34;;;;;;;1.20;1.10;;;;;;;23.50;48.18;100075.19;2117435;83;27656;-61
2021/08/28 10:47:36;;;;;;;1.35;1.25;;;;;;;23.44;46.63;100070.41;2106975;83;28763;-61
2021/08/28 10:50:41;;;;;;;1.22;1.12;;;;;;;23.35;47.10;100075.48;2092486;84;31062;-62
2021/08/28 10:53:43;;;;;;;1.40;1.10;;;;;;;23.39;47.46;100076.03;2103561;84;32980;-61
2021/08/28 10:56:58;;;;;;;2.85;1.37;;;;;;;23.33;46.57;100076.19;2080730;84;29820;-63
2021/08/28 11:00:06;;;;;;;1.20;1.10;;;;;;;23.17;46.75;100081.02;2072718;85;27757;-61
2021/08/28 11:03:29;;;;;;;1.05;0.80;;;;;;;23.20;46.84;100078.84;2072515;85;28718;-61
2021/08/28 11:06:31;;;;;;;1.22;0.90;;;;;;;23.23;45.93;100072.70;2113796;82;31309;-61
2021/08/28 11:10:11;;;;;;;2.12;1.17;;;;;;;23.05;45.93;100078.59;2082763;85;32648;-61
2021/08/28 11:13:14;;;;;;;2.25;1.47;;;;;;;23.08;46.65;100074.66;2046228;87;30538;-62
2021/08/28 11:16:21;;;;;;;1.35;1.10;;;;;;;23.23;46.90;100079.05;2090011;83;27594;-62
2021/08/28 11:19:31;;;;;;;2.00;0.90;;;;;;;23.40;47.08;100071.75;2142135;82;29511;-62
2021/08/28 11:22:37;;;;;;;1.25;1.00;;;;;;;23.59;47.53;100072.49;2141231;82;30999;-64
2021/08/28 11:25:42;;;;;;;2.92;1.20;;;;;;;23.81;47.30;100075.97;2140559;83;32952;-61
2021/08/28 11:28:44;;;;;;;1.20;1.10;;;;;;;24.00;47.40;100073.95;2095912;83;30311;-61
2021/08/28 11:32:07;;;;;;;2.37;1.10;;;;;;;24.03;46.46;100064.03;2092360;84;27661;-61
2021/08/28 11:35:09;;;;;;;1.67;1.00;;;;;;;24.17;46.74;100071.22;2092652;85;28701;-64
2021/08/28 11:38:13;;;;;;;2.45;1.07;;;;;;;24.28;46.15;100066.27;2107930;82;31906;-61
2021/08/28 11:41:24;;;;;;;1.80;1.22;;;;;;;24.39;46.08;100071.06;2102833;84;33779;-61
2021/08/28 11:44:27;;;;;;;1.65;1.30;;;;;;;24.47;46.07;100077.05;2123940;83;30463;-63
2021/08/28 11:47:32;;;;;;;1.25;1.00;;;;;;;24.56;45.89;100071.39;2138995;82;27606;-63
2021/08/28 11:50:36;;;;;;;1.30;1.20;;;;;;;24.71;46.47;100069.34;2150740;82;29278;-63
2021/08/28 11:53:43;;;;;;;2.17;1.05;;;;;;;24.84;45.46;100071.52;2154263;82;31018;-67
2021/08/28 11:56:59;;;;;;;1.02;0.93;;;;;;;24.82;44.76;100070.33;2165540;82;33504;-62
2021/08/28 12:00:05;;;;;;;1.72;1.22;;;;;;;24.87;45.04;100073.41;2166954;82;29395;-65
2021/08/28 12:03:09;;;;;;;1.60;1.07;;;;;;;24.87;44.46;100082.13;2167215;82;27700;-63
2021/08/28 12:06:28;;;;;;;1.22;1.02;;;;;;;24.78;43.45;100077.71;2148100;81;28645;-61
2021/08/28 12:09:39;;;;;;;1.32;1.00;;;;;;;24.66;43.58;100080.77;2074353;82;31275;-65
2021/08/28 12:12:42;;;;;;;1.10;1.00;;;;;;;24.53;43.32;100084.55;2088226;85;32811;-61
2021/08/28 12:15:48;;;;;;;1.02;0.90;;;;;;;24.39;43.90;100082.02;2088947;84;29413;-61
2021/08/28 12:19:05;;;;;;;1.20;1.02;;;;;;;24.34;43.50;100089.36;2133520;82;27589;-62
2021/08/28 12:22:09;;;;;;;3.50;1.00;;;;;;;24.39;44.01;100078.75;2143440;82;28707;-62
2021/08/28 12:25:15;;;;;;;1.17;0.93;;;;;;;24.48;43.85;100076.02;2143588;82;31835;-62
2021/08/28 12:28:19;;;;;;;1.00;0.98;;;;;;;24.48;43.74;100075.49;2111492;83;32965;-61
2021/08/28 12:31:23;;;;;;;1.33;0.90;;;;;;;24.48;43.85;100077.39;2129544;83;29410;-62
2021/08/28 12:34:30;;;;;;;0.80;0.80;;;;;;;24.51;43.92;100083.87;2143621;83;27703;-62
2021/08/28 12:37:34;;;;;;;1.17;0.90;;;;;;;24.41;43.67;100076.70;2123691;83;28623;-63
2021/08/28 12:40:43;;;;;;;1.55;1.45;;;;;;;24.35;43.67;100074.64;2091203;85;31053;-63
2021/08/28 12:43:56;;;;;;;1.87;1.02;;;;;;;24.21;42.32;100072.59;2093587;85;32992;-65
2021/08/28 12:50:26;;;;;;;1.50;1.40;;;;;;;23.93;43.06;100062.80;1862566;94;27850;-65
2021/08/28 12:53:33;;;;;;;0.82;0.82;;;;;;;23.94;43.53;100056.83;1885782;94;28682;-60
2021/08/28 12:56:41;;;;;;;2.55;1.05;;;;;;;24.04;43.76;100054.80;1885637;94;31082;-62
2021/08/28 12:59:54;;;;;;;1.52;0.90;;;;;;;24.09;43.08;100055.66;1861781;93;33031;-62
2021/08/28 13:02:57;;;;;;;1.00;1.00;;;;;;;24.08;43.51;100052.08;1865487;94;29379;-62
2021/08/28 13:06:02;;;;;;;2.27;1.95;;;;;;;24.02;43.26;100051.38;1864615;93;36955;-62
2021/08/28 13:09:19;;;;;;;1.45;1.30;;;;;;;24.00;42.98;100056.16;1845339;94;28916;-62
2021/08/28 13:12:57;;;;;;;1.55;1.10;;;;;;;23.98;43.68;100052.77;1845989;96;27957;-62
2021/08/28 13:16:05;;;;;;;1.07;1.00;;;;;;;23.94;43.63;100050.83;1842701;96;33090;-62
2021/08/28 13:19:14;;;;;;;2.75;1.20;;;;;;;23.93;43.91;100051.84;1856133;94;29346;-61
2021/08/28 13:22:24;;;;;;;1.47;1.10;;;;;;;23.99;43.42;100050.37;1859428;95;27876;-62
2021/08/28 13:25:35;;;;;;;0.80;0.80;;;;;;;23.82;43.50;100055.80;1829073;95;28885;-62
2021/08/28 13:28:48;;;;;;;1.37;0.90;;;;;;;23.77;44.09;100049.97;1850552;94;31807;-62
2021/08/28 13:31:47;;;;;;;1.20;1.10;;;;;;;23.77;43.85;100047.23;1838593;95;33828;-63
2021/08/28 13:34:51;;;;;;;1.00;0.90;;;;;;;23.67;43.60;100052.86;1838971;95;31472;-62
2021/08/28 13:37:54;;;;;;;3.20;1.12;;;;;;;23.54;42.94;100059.82;1846415;93;27925;-61
2021/08/28 13:40:57;;;;;;;0.93;0.90;;;;;;;23.48;43.61;100053.15;1877081;94;28692;-63
2021/08/28 13:43:59;;;;;;;1.30;0.90;;;;;;;23.46;43.94;100050.59;1869721;94;31162;-61
2021/08/28 13:47:01;;;;;;;5.42;1.30;;;;;;;23.43;43.53;100055.52;1859898;94;34230;-61
2021/08/28 13:50:05;;;;;;;1.10;1.00;;;;;;;23.30;43.49;100047.28;1846057;95;29727;-62
2021/08/28 13:53:07;;;;;;;8.78;7.40;;;;;;;23.21;43.42;100046.39;1845844;96;27855;-65
2021/08/28 13:56:10;;;;;;;4.20;3.08;;;;;;;23.06;43.23;100057.08;1953101;88;29150;-62
2021/08/28 13:59:37;;;;;;;5.35;3.72;;;;;;;23.00;43.58;100046.80;2015512;88;31378;-62
2021/08/28 14:02:28;;;;;;;1.12;1.00;;;;;;;22.98;43.71;100052.93;1919942;92;29623;-65
2021/08/28 14:05:31;;;;;;;1.82;1.10;;;;;;;22.99;43.71;100048.34;1943669;85;29384;-62
2021/08/28 14:08:33;;;;;;;1.27;0.62;;;;;;;23.00;43.51;100050.05;2089285;85;28210;-61
2021/08/28 14:11:35;;;;;;;1.00;0.90;;;;;;;23.01;43.40;100049.00;2089238;85;28702;-62
2021/08/28 14:14:37;;;;;;;1.85;1.45;;;;;;;23.03;43.81;100053.80;2081127;85;32297;-61
2021/08/28 14:17:39;;;;;;;0.93;0.90;;;;;;;23.00;43.36;100056.88;2039509;85;32993;-61
2021/08/28 14:20:41;;;;;;;0.90;0.82;;;;;;;22.86;43.06;100052.35;2031471;87;30514;-61